^^
Station Historical Data
Daily Summary for March 16, 2017 Units:  Both    English   Metric
« Previous Day
Next Day »
Daily Weekly Monthly Yearly Custom
  High: Low: Average:
Temperature: 86.7 °F /  30.4 °C 60.4 °F /  15.8 °C 72.5 °F /  22.5 °C
Dew Point: 56.8 °F /  13.8 °C 35.8 °F /  2.1 °C 47.6 °F /  8.7 °C
Humidity: 67% 27% 43%
Wind Speed: 6.9mph /  11.1km/h - 0.9mph /  1.4km/h
Wind Gust: 9.0mph /  14.5km/h - -
Wind- - ESE
Pressure: 29.82 in /  1009.7 hPa 29.69 in /  1005.3 hPa -
Precipitation: 0.00 in /  0 mm    
Historical Graphs
 
 
Tabular Data for March 16, 2017
Time Temperature Dew Point Pressure Wind Wind Speed Wind Gust Humidity Rainfall Rate (Hourly) solar Conditions
00:00 68.4 °F /  20.2 °C 52.5 °F /  11.4 °C 29.78in /  1008.4hPa Calm   1.0mph /  1.6km/h 57% 0.00in /  0mm 0.0 W/m2
00:06 68.2 °F /  20.1 °C 51.8 °F /  11 °C 29.78in /  1008.4hPa Calm   1.0mph /  1.6km/h 56% 0.00in /  0mm 0.0 W/m2
00:13 67.8 °F /  19.9 °C 52.5 °F /  11.4 °C 29.78in /  1008.4hPa Calm     58% 0.00in /  0mm 0.0 W/m2
00:19 67.5 °F /  19.7 °C 52.7 °F /  11.5 °C 29.78in /  1008.4hPa Calm     59% 0.00in /  0mm 0.0 W/m2
00:25 66.9 °F /  19.4 °C 51.3 °F /  10.7 °C 29.78in /  1008.4hPa SE 2.9mph /  4.7km/h 3.0mph /  4.8km/h 57% 0.00in /  0mm 0.0 W/m2
00:31 66.7 °F /  19.3 °C 48.6 °F /  9.2 °C 29.78in /  1008.4hPa SE 2.9mph /  4.7km/h 4.0mph /  6.4km/h 52% 0.00in /  0mm 0.0 W/m2
00:37 66.6 °F /  19.2 °C 45.7 °F /  7.6 °C 29.78in /  1008.4hPa SE 0.9mph /  1.4km/h 3.0mph /  4.8km/h 47% 0.00in /  0mm 0.0 W/m2
00:43 66.4 °F /  19.1 °C 45.5 °F /  7.5 °C 29.78in /  1008.4hPa Calm   2.0mph /  3.2km/h 47% 0.00in /  0mm 0.0 W/m2
00:49 66.4 °F /  19.1 °C 45.5 °F /  7.5 °C 29.78in /  1008.4hPa Calm   2.0mph /  3.2km/h 47% 0.00in /  0mm 0.0 W/m2
00:55 66.0 °F /  18.9 °C 45.1 °F /  7.3 °C 29.78in /  1008.4hPa Calm   1.0mph /  1.6km/h 47% 0.00in /  0mm 0.0 W/m2
01:01 65.7 °F /  18.7 °C 45.5 °F /  7.5 °C 29.78in /  1008.4hPa Calm   1.0mph /  1.6km/h 48% 0.00in /  0mm 0.0 W/m2
01:07 65.5 °F /  18.6 °C 43.5 °F /  6.4 °C 29.78in /  1008.4hPa Calm   2.0mph /  3.2km/h 45% 0.00in /  0mm 0.0 W/m2
01:13 65.3 °F /  18.5 °C 44.1 °F /  6.7 °C 29.78in /  1008.4hPa Calm     46% 0.00in /  0mm 0.0 W/m2
01:19 65.1 °F /  18.4 °C 45.0 °F /  7.2 °C 29.78in /  1008.4hPa Calm     48% 0.00in /  0mm 0.0 W/m2
01:26 64.9 °F /  18.3 °C 45.3 °F /  7.4 °C 29.78in /  1008.4hPa Calm   1.0mph /  1.6km/h 49% 0.00in /  0mm 0.0 W/m2
01:32 64.6 °F /  18.1 °C 45.5 °F /  7.5 °C 29.77in /  1008hPa Calm     50% 0.00in /  0mm 0.0 W/m2
01:38 64.4 °F /  18 °C 45.9 °F /  7.7 °C 29.77in /  1008hPa Calm     51% 0.00in /  0mm 0.0 W/m2
01:44 64.0 °F /  17.8 °C 47.1 °F /  8.4 °C 29.78in /  1008.4hPa Calm     54% 0.00in /  0mm 0.0 W/m2
01:50 63.7 °F /  17.6 °C 45.7 °F /  7.6 °C 29.77in /  1008hPa Calm     52% 0.00in /  0mm 0.0 W/m2
01:56 63.3 °F /  17.4 °C 45.0 °F /  7.2 °C 29.77in /  1008hPa Calm     51% 0.00in /  0mm 0.0 W/m2
02:02 63.1 °F /  17.3 °C 45.7 °F /  7.6 °C 29.77in /  1008hPa Calm   1.0mph /  1.6km/h 53% 0.00in /  0mm 0.0 W/m2
02:08 63.0 °F /  17.2 °C 46.0 °F /  7.8 °C 29.77in /  1008hPa Calm   1.0mph /  1.6km/h 54% 0.00in /  0mm 0.0 W/m2
02:15 62.8 °F /  17.1 °C 45.9 °F /  7.7 °C 29.77in /  1008hPa Calm     54% 0.00in /  0mm 0.0 W/m2
02:21 62.4 °F /  16.9 °C 45.5 °F /  7.5 °C 29.76in /  1007.7hPa Calm     54% 0.00in /  0mm 0.0 W/m2
02:27 62.2 °F /  16.8 °C 48.2 °F /  9 °C 29.77in /  1008hPa Calm     60% 0.00in /  0mm 0.0 W/m2
02:33 62.1 °F /  16.7 °C 48.0 °F /  8.9 °C 29.77in /  1008hPa Calm     60% 0.00in /  0mm 0.0 W/m2
02:39 61.9 °F /  16.6 °C 47.8 °F /  8.8 °C 29.77in /  1008hPa Calm     60% 0.00in /  0mm 0.0 W/m2
02:45 61.5 °F /  16.4 °C 45.7 °F /  7.6 °C 29.77in /  1008hPa Calm     56% 0.00in /  0mm 0.0 W/m2
02:51 61.5 °F /  16.4 °C 47.1 °F /  8.4 °C 29.77in /  1008hPa Calm     59% 0.00in /  0mm 0.0 W/m2
02:57 61.5 °F /  16.4 °C 46.6 °F /  8.1 °C 29.77in /  1008hPa Calm   1.0mph /  1.6km/h 58% 0.00in /  0mm 0.0 W/m2
03:03 61.5 °F /  16.4 °C 45.7 °F /  7.6 °C 29.76in /  1007.7hPa Calm     56% 0.00in /  0mm 0.0 W/m2
03:10 61.5 °F /  16.4 °C 45.7 °F /  7.6 °C 29.76in /  1007.7hPa Calm     56% 0.00in /  0mm 0.0 W/m2
03:16 61.5 °F /  16.4 °C 46.2 °F /  7.9 °C 29.76in /  1007.7hPa Calm     57% 0.00in /  0mm 0.0 W/m2
03:22 61.5 °F /  16.4 °C 46.6 °F /  8.1 °C 29.76in /  1007.7hPa Calm     58% 0.00in /  0mm 0.0 W/m2
03:28 61.3 °F /  16.3 °C 47.3 °F /  8.5 °C 29.76in /  1007.7hPa Calm     60% 0.00in /  0mm 0.0 W/m2
03:34 61.3 °F /  16.3 °C 46.4 °F /  8 °C 29.76in /  1007.7hPa South 2.9mph /  4.7km/h 3.0mph /  4.8km/h 58% 0.00in /  0mm 0.0 W/m2
03:40 61.3 °F /  16.3 °C 47.8 °F /  8.8 °C 29.76in /  1007.7hPa Calm     61% 0.00in /  0mm 0.0 W/m2
03:46 61.2 °F /  16.2 °C 46.8 °F /  8.2 °C 29.75in /  1007.3hPa East 4.0mph /  6.4km/h 4.0mph /  6.4km/h 59% 0.00in /  0mm 0.0 W/m2
03:52 61.2 °F /  16.2 °C 42.4 °F /  5.8 °C 29.75in /  1007.3hPa Calm   1.0mph /  1.6km/h 50% 0.00in /  0mm 0.0 W/m2
03:58 61.3 °F /  16.3 °C 40.5 °F /  4.7 °C 29.75in /  1007.3hPa Calm   2.0mph /  3.2km/h 46% 0.00in /  0mm 0.0 W/m2
04:04 61.9 °F /  16.6 °C 40.8 °F /  4.9 °C 29.76in /  1007.7hPa Calm   2.0mph /  3.2km/h 46% 0.00in /  0mm 0.0 W/m2
04:10 62.1 °F /  16.7 °C 40.5 °F /  4.7 °C 29.76in /  1007.7hPa South 0.9mph /  1.4km/h 2.0mph /  3.2km/h 45% 0.00in /  0mm 0.0 W/m2
04:16 62.4 °F /  16.9 °C 39.0 °F /  3.9 °C 29.75in /  1007.3hPa Calm   1.0mph /  1.6km/h 42% 0.00in /  0mm 0.0 W/m2
04:22 63.0 °F /  17.2 °C 37.6 °F /  3.1 °C 29.75in /  1007.3hPa Calm   5.0mph /  8km/h 39% 0.00in /  0mm 0.0 W/m2
04:28 63.7 °F /  17.6 °C 36.9 °F /  2.7 °C 29.76in /  1007.7hPa SSE 0.9mph /  1.4km/h 6.0mph /  9.7km/h 37% 0.00in /  0mm 0.0 W/m2
04:34 64.0 °F /  17.8 °C 37.2 °F /  2.9 °C 29.76in /  1007.7hPa Calm   4.0mph /  6.4km/h 37% 0.00in /  0mm 0.0 W/m2
04:40 64.4 °F /  18 °C 38.3 °F /  3.5 °C 29.76in /  1007.7hPa Calm   5.0mph /  8km/h 38% 0.00in /  0mm 0.0 W/m2
04:46 64.6 °F /  18.1 °C 37.8 °F /  3.2 °C 29.77in /  1008hPa Calm   2.0mph /  3.2km/h 37% 0.00in /  0mm 0.0 W/m2
04:54 64.4 °F /  18 °C 38.3 °F /  3.5 °C 29.77in /  1008hPa Calm   1.0mph /  1.6km/h 38% 0.00in /  0mm 0.0 W/m2
05:00 64.2 °F /  17.9 °C 37.4 °F /  3 °C 29.77in /  1008hPa East 2.9mph /  4.7km/h 4.0mph /  6.4km/h 37% 0.00in /  0mm 0.0 W/m2
05:06 64.0 °F /  17.8 °C 37.9 °F /  3.3 °C 29.77in /  1008hPa SE 2.9mph /  4.7km/h 3.0mph /  4.8km/h 38% 0.00in /  0mm 0.0 W/m2
05:12 63.9 °F /  17.7 °C 37.0 °F /  2.8 °C 29.77in /  1008hPa ESE 0.9mph /  1.4km/h 6.0mph /  9.7km/h 37% 0.00in /  0mm 0.0 W/m2
05:18 63.7 °F /  17.6 °C 36.9 °F /  2.7 °C 29.77in /  1008hPa SE 0.9mph /  1.4km/h 3.0mph /  4.8km/h 37% 0.00in /  0mm 0.0 W/m2
05:24 63.5 °F /  17.5 °C 37.4 °F /  3 °C 29.77in /  1008hPa SSE 0.9mph /  1.4km/h 3.0mph /  4.8km/h 38% 0.00in /  0mm 0.0 W/m2
05:30 63.7 °F /  17.6 °C 36.1 °F /  2.3 °C 29.77in /  1008hPa SSE 0.9mph /  1.4km/h 5.0mph /  8km/h 36% 0.00in /  0mm 0.0 W/m2
05:36 63.9 °F /  17.7 °C 37.0 °F /  2.8 °C 29.78in /  1008.4hPa Calm   1.0mph /  1.6km/h 37% 0.00in /  0mm 0.0 W/m2
05:43 63.7 °F /  17.6 °C 36.9 °F /  2.7 °C 29.78in /  1008.4hPa Calm   2.0mph /  3.2km/h 37% 0.00in /  0mm 0.0 W/m2
05:49 63.5 °F /  17.5 °C 36.7 °F /  2.6 °C 29.78in /  1008.4hPa Calm   2.0mph /  3.2km/h 37% 0.00in /  0mm 0.0 W/m2
05:55 63.3 °F /  17.4 °C 37.2 °F /  2.9 °C 29.78in /  1008.4hPa South 2.9mph /  4.7km/h 3.0mph /  4.8km/h 38% 0.00in /  0mm 0.0 W/m2
06:01 63.1 °F /  17.3 °C 35.8 °F /  2.1 °C 29.78in /  1008.4hPa East 2.9mph /  4.7km/h 3.0mph /  4.8km/h 36% 0.00in /  0mm 0.0 W/m2
06:07 63.1 °F /  17.3 °C 37.0 °F /  2.8 °C 29.78in /  1008.4hPa Calm   1.0mph /  1.6km/h 38% 0.00in /  0mm 0.0 W/m2
06:13 63.0 °F /  17.2 °C 37.0 °F /  2.8 °C 29.78in /  1008.4hPa Calm   2.0mph /  3.2km/h 38% 0.00in /  0mm 0.0 W/m2
06:19 63.0 °F /  17.2 °C 37.0 °F /  2.8 °C 29.78in /  1008.4hPa Calm   2.0mph /  3.2km/h 38% 0.00in /  0mm 0.0 W/m2
06:25 62.8 °F /  17.1 °C 36.9 °F /  2.7 °C 29.78in /  1008.4hPa Calm     38% 0.00in /  0mm 0.0 W/m2
06:31 62.6 °F /  17 °C 37.2 °F /  2.9 °C 29.78in /  1008.4hPa SSE 4.0mph /  6.4km/h 4.0mph /  6.4km/h 39% 0.00in /  0mm 0.0 W/m2
06:37 62.6 °F /  17 °C 37.2 °F /  2.9 °C 29.78in /  1008.4hPa Calm     39% 0.00in /  0mm 0.0 W/m2
06:43 62.4 °F /  16.9 °C 37.8 °F /  3.2 °C 29.78in /  1008.4hPa Calm   1.0mph /  1.6km/h 40% 0.00in /  0mm 0.0 W/m2
06:49 62.2 °F /  16.8 °C 38.3 °F /  3.5 °C 29.78in /  1008.4hPa Calm     41% 0.00in /  0mm 0.0 W/m2
06:55 62.1 °F /  16.7 °C 38.7 °F /  3.7 °C 29.79in /  1008.7hPa Calm     42% 0.00in /  0mm 0.0 W/m2
07:01 61.9 °F /  16.6 °C 39.2 °F /  4 °C 29.79in /  1008.7hPa Calm     43% 0.00in /  0mm 7.0 W/m2
07:07 61.5 °F /  16.4 °C 38.8 °F /  3.8 °C 29.79in /  1008.7hPa SE 0.9mph /  1.4km/h 2.0mph /  3.2km/h 43% 0.00in /  0mm 11.0 W/m2
07:13 61.3 °F /  16.3 °C 40.5 °F /  4.7 °C 29.79in /  1008.7hPa Calm     46% 0.00in /  0mm 12.0 W/m2
07:19 61.3 °F /  16.3 °C 39.7 °F /  4.3 °C 29.79in /  1008.7hPa Calm   2.0mph /  3.2km/h 45% 0.00in /  0mm 14.0 W/m2
07:25 61.3 °F /  16.3 °C 41.0 °F /  5 °C 29.79in /  1008.7hPa NNE 0.9mph /  1.4km/h 1.0mph /  1.6km/h 47% 0.00in /  0mm 18.0 W/m2
07:31 61.2 °F /  16.2 °C 41.9 °F /  5.5 °C 29.79in /  1008.7hPa Calm   2.0mph /  3.2km/h 49% 0.00in /  0mm 19.0 W/m2
07:37 61.0 °F /  16.1 °C 43.2 °F /  6.2 °C 29.79in /  1008.7hPa Calm     52% 0.00in /  0mm 23.0 W/m2
07:43 60.8 °F /  16 °C 43.5 °F /  6.4 °C 29.80in /  1009hPa Calm   1.0mph /  1.6km/h 53% 0.00in /  0mm 21.0 W/m2
07:49 60.6 °F /  15.9 °C 44.4 °F /  6.9 °C 29.80in /  1009hPa Calm     55% 0.00in /  0mm 28.0 W/m2
07:55 60.4 °F /  15.8 °C 44.2 °F /  6.8 °C 29.80in /  1009hPa Calm     55% 0.00in /  0mm 30.0 W/m2
08:01 60.6 °F /  15.9 °C 43.9 °F /  6.6 °C 29.80in /  1009hPa Calm     54% 0.00in /  0mm 33.0 W/m2
08:07 61.2 °F /  16.2 °C 45.3 °F /  7.4 °C 29.80in /  1009hPa Calm     56% 0.00in /  0mm 30.0 W/m2
08:15 61.3 °F /  16.3 °C 45.5 °F /  7.5 °C 29.80in /  1009hPa Calm     56% 0.00in /  0mm 30.0 W/m2
08:21 61.9 °F /  16.6 °C 44.1 °F /  6.7 °C 29.80in /  1009hPa Calm     52% 0.00in /  0mm 32.0 W/m2
08:27 62.4 °F /  16.9 °C 43.0 °F /  6.1 °C 29.80in /  1009hPa Calm     49% 0.00in /  0mm 32.0 W/m2
08:33 63.0 °F /  17.2 °C 42.4 °F /  5.8 °C 29.80in /  1009hPa Calm     47% 0.00in /  0mm 33.0 W/m2
08:39 63.7 °F /  17.6 °C 41.4 °F /  5.2 °C 29.81in /  1009.4hPa Calm     44% 0.00in /  0mm 33.0 W/m2
08:45 64.6 °F /  18.1 °C 41.5 °F /  5.3 °C 29.81in /  1009.4hPa Calm   1.0mph /  1.6km/h 43% 0.00in /  0mm 33.0 W/m2
08:51 65.5 °F /  18.6 °C 42.4 °F /  5.8 °C 29.81in /  1009.4hPa NE 0.9mph /  1.4km/h 1.0mph /  1.6km/h 43% 0.00in /  0mm 35.0 W/m2
08:57 66.2 °F /  19 °C 41.7 °F /  5.4 °C 29.81in /  1009.4hPa Calm   1.0mph /  1.6km/h 41% 0.00in /  0mm 37.0 W/m2
09:03 66.9 °F /  19.4 °C 41.2 °F /  5.1 °C 29.81in /  1009.4hPa Calm     39% 0.00in /  0mm 37.0 W/m2
09:09 67.5 °F /  19.7 °C 42.3 °F /  5.7 °C 29.81in /  1009.4hPa Calm     40% 0.00in /  0mm 37.0 W/m2
09:15 68.2 °F /  20.1 °C 41.0 °F /  5 °C 29.81in /  1009.4hPa Calm   1.0mph /  1.6km/h 37% 0.00in /  0mm 39.0 W/m2
09:21 68.7 °F /  20.4 °C 42.1 °F /  5.6 °C 29.81in /  1009.4hPa Calm     38% 0.00in /  0mm 39.0 W/m2
09:27 69.4 °F /  20.8 °C 42.1 °F /  5.6 °C 29.81in /  1009.4hPa Calm     37% 0.00in /  0mm 39.0 W/m2
09:33 70.2 °F /  21.2 °C 41.9 °F /  5.5 °C 29.81in /  1009.4hPa Calm     36% 0.00in /  0mm 40.0 W/m2
09:39 70.9 °F /  21.6 °C 41.9 °F /  5.5 °C 29.82in /  1009.7hPa Calm     35% 0.00in /  0mm 47.0 W/m2
09:45 71.6 °F /  22 °C 41.7 °F /  5.4 °C 29.82in /  1009.7hPa Calm   2.0mph /  3.2km/h 34% 0.00in /  0mm 635.0 W/m2
09:51 72.3 °F /  22.4 °C 43.2 °F /  6.2 °C 29.82in /  1009.7hPa Calm   1.0mph /  1.6km/h 35% 0.00in /  0mm 656.0 W/m2
09:57 73.0 °F /  22.8 °C 43.7 °F /  6.5 °C 29.82in /  1009.7hPa ESE 0.9mph /  1.4km/h 2.0mph /  3.2km/h 35% 0.00in /  0mm 677.0 W/m2
10:03 74.1 °F /  23.4 °C 43.9 °F /  6.6 °C 29.81in /  1009.4hPa Calm   2.0mph /  3.2km/h 34% 0.00in /  0mm 696.0 W/m2
10:09 75.6 °F /  24.2 °C 44.4 °F /  6.9 °C 29.81in /  1009.4hPa Calm   4.0mph /  6.4km/h 33% 0.00in /  0mm 715.0 W/m2
10:15 76.6 °F /  24.8 °C 45.3 °F /  7.4 °C 29.81in /  1009.4hPa NNW 4.0mph /  6.4km/h 7.0mph /  11.3km/h 33% 0.00in /  0mm 731.0 W/m2
10:21 77.7 °F /  25.4 °C 47.1 °F /  8.4 °C 29.81in /  1009.4hPa Calm   2.0mph /  3.2km/h 34% 0.00in /  0mm 747.0 W/m2
10:27 78.4 °F /  25.8 °C 47.7 °F /  8.7 °C 29.81in /  1009.4hPa SE 0.9mph /  1.4km/h 5.0mph /  8km/h 34% 0.00in /  0mm 763.0 W/m2
10:33 79.0 °F /  26.1 °C 48.2 °F /  9 °C 29.81in /  1009.4hPa East 4.0mph /  6.4km/h 6.0mph /  9.7km/h 34% 0.00in /  0mm 780.0 W/m2
10:39 79.5 °F /  26.4 °C 47.8 °F /  8.8 °C 29.81in /  1009.4hPa ESE 2.0mph /  3.2km/h 6.0mph /  9.7km/h 33% 0.00in /  0mm 796.0 W/m2
10:45 79.9 °F /  26.6 °C 47.3 °F /  8.5 °C 29.81in /  1009.4hPa East 4.0mph /  6.4km/h 7.0mph /  11.3km/h 32% 0.00in /  0mm 814.0 W/m2
10:51 80.2 °F /  26.8 °C 48.6 °F /  9.2 °C 29.81in /  1009.4hPa ENE 6.9mph /  11.1km/h 7.0mph /  11.3km/h 33% 0.00in /  0mm 826.0 W/m2
10:57 81.0 °F /  27.2 °C 47.5 °F /  8.6 °C 29.81in /  1009.4hPa NE 2.9mph /  4.7km/h 9.0mph /  14.5km/h 31% 0.00in /  0mm 842.0 W/m2
11:03 81.1 °F /  27.3 °C 48.6 °F /  9.2 °C 29.81in /  1009.4hPa Calm   6.0mph /  9.7km/h 32% 0.00in /  0mm 856.0 W/m2
11:09 81.7 °F /  27.6 °C 49.8 °F /  9.9 °C 29.81in /  1009.4hPa ESE 4.9mph /  7.9km/h 5.0mph /  8km/h 33% 0.00in /  0mm 867.0 W/m2
11:15 81.9 °F /  27.7 °C 48.2 °F /  9 °C 29.80in /  1009hPa SE 2.9mph /  4.7km/h 6.0mph /  9.7km/h 31% 0.00in /  0mm 889.0 W/m2
11:21 81.9 °F /  27.7 °C 47.3 °F /  8.5 °C 29.80in /  1009hPa East 2.0mph /  3.2km/h 4.0mph /  6.4km/h 30% 0.00in /  0mm 905.0 W/m2
11:27 82.2 °F /  27.9 °C 47.7 °F /  8.7 °C 29.80in /  1009hPa Calm   8.0mph /  12.9km/h 30% 0.00in /  0mm 912.0 W/m2
11:33 82.4 °F /  28 °C 48.7 °F /  9.3 °C 29.80in /  1009hPa North 2.9mph /  4.7km/h 6.0mph /  9.7km/h 31% 0.00in /  0mm 949.0 W/m2
11:40 82.9 °F /  28.3 °C 47.5 °F /  8.6 °C 29.80in /  1009hPa NE 2.0mph /  3.2km/h 2.0mph /  3.2km/h 29% 0.00in /  0mm 1023.0 W/m2
11:45 83.1 °F /  28.4 °C 47.7 °F /  8.7 °C 29.80in /  1009hPa SSE 2.0mph /  3.2km/h 8.0mph /  12.9km/h 29% 0.00in /  0mm 232.0 W/m2
11:51 82.6 °F /  28.1 °C 48.9 °F /  9.4 °C 29.80in /  1009hPa NE 4.0mph /  6.4km/h 4.0mph /  6.4km/h 31% 0.00in /  0mm 311.0 W/m2
11:57 82.6 °F /  28.1 °C 48.9 °F /  9.4 °C 29.79in /  1008.7hPa ESE 2.9mph /  4.7km/h 5.0mph /  8km/h 31% 0.00in /  0mm 1085.0 W/m2
12:03 82.9 °F /  28.3 °C 48.4 °F /  9.1 °C 29.79in /  1008.7hPa NNW 0.9mph /  1.4km/h 4.0mph /  6.4km/h 30% 0.00in /  0mm 1072.0 W/m2
12:09 82.9 °F /  28.3 °C 49.3 °F /  9.6 °C 29.79in /  1008.7hPa NE 0.9mph /  1.4km/h 4.0mph /  6.4km/h 31% 0.00in /  0mm 1072.0 W/m2
12:15 82.9 °F /  28.3 °C 49.3 °F /  9.6 °C 29.79in /  1008.7hPa ESE 2.0mph /  3.2km/h 8.0mph /  12.9km/h 31% 0.00in /  0mm 271.0 W/m2
12:21 82.9 °F /  28.3 °C 49.3 °F /  9.6 °C 29.78in /  1008.4hPa SSE 0.9mph /  1.4km/h 5.0mph /  8km/h 31% 0.00in /  0mm 1093.0 W/m2
12:27 83.1 °F /  28.4 °C 49.3 °F /  9.6 °C 29.78in /  1008.4hPa East 2.9mph /  4.7km/h 6.0mph /  9.7km/h 31% 0.00in /  0mm 1093.0 W/m2
12:33 83.5 °F /  28.6 °C 48.7 °F /  9.3 °C 29.78in /  1008.4hPa Calm   4.0mph /  6.4km/h 30% 0.00in /  0mm 1076.0 W/m2
12:39 84.2 °F /  29 °C 51.1 °F /  10.6 °C 29.78in /  1008.4hPa ESE 4.0mph /  6.4km/h 6.0mph /  9.7km/h 32% 0.00in /  0mm 1095.0 W/m2
12:45 84.7 °F /  29.3 °C 50.7 °F /  10.4 °C 29.77in /  1008hPa Calm   7.0mph /  11.3km/h 31% 0.00in /  0mm 1129.0 W/m2
12:51 85.1 °F /  29.5 °C 51.1 °F /  10.6 °C 29.77in /  1008hPa ESE 2.9mph /  4.7km/h 6.0mph /  9.7km/h 31% 0.00in /  0mm 1071.0 W/m2
12:57 85.1 °F /  29.5 °C 50.2 °F /  10.1 °C 29.77in /  1008hPa SE 4.0mph /  6.4km/h 5.0mph /  8km/h 30% 0.00in /  0mm 1051.0 W/m2
13:03 84.9 °F /  29.4 °C 49.1 °F /  9.5 °C 29.77in /  1008hPa Calm   5.0mph /  8km/h 29% 0.00in /  0mm 1065.0 W/m2
13:09 85.1 °F /  29.5 °C 51.1 °F /  10.6 °C 29.77in /  1008hPa East 2.9mph /  4.7km/h 7.0mph /  11.3km/h 31% 0.00in /  0mm 1071.0 W/m2
13:15 85.5 °F /  29.7 °C 49.6 °F /  9.8 °C 29.77in /  1008hPa NE 2.0mph /  3.2km/h 7.0mph /  11.3km/h 29% 0.00in /  0mm 1069.0 W/m2
13:21 85.6 °F /  29.8 °C 50.7 °F /  10.4 °C 29.76in /  1007.7hPa East 4.9mph /  7.9km/h 5.0mph /  8km/h 30% 0.00in /  0mm 1044.0 W/m2
13:27 85.6 °F /  29.8 °C 50.7 °F /  10.4 °C 29.76in /  1007.7hPa East 4.0mph /  6.4km/h 7.0mph /  11.3km/h 30% 0.00in /  0mm 125.0 W/m2
13:33 84.7 °F /  29.3 °C 49.8 °F /  9.9 °C 29.76in /  1007.7hPa ENE 2.9mph /  4.7km/h 5.0mph /  8km/h 30% 0.00in /  0mm 253.0 W/m2
13:39 84.0 °F /  28.9 °C 50.9 °F /  10.5 °C 29.76in /  1007.7hPa East 0.9mph /  1.4km/h 6.0mph /  9.7km/h 32% 0.00in /  0mm 1062.0 W/m2
13:46 84.4 °F /  29.1 °C 50.4 °F /  10.2 °C 29.76in /  1007.7hPa ENE 2.9mph /  4.7km/h 7.0mph /  11.3km/h 31% 0.00in /  0mm 1051.0 W/m2
13:51 84.4 °F /  29.1 °C 50.4 °F /  10.2 °C 29.75in /  1007.3hPa ESE 4.0mph /  6.4km/h 6.0mph /  9.7km/h 31% 0.00in /  0mm 232.0 W/m2
13:58 83.7 °F /  28.7 °C 51.4 °F /  10.8 °C 29.75in /  1007.3hPa East 2.0mph /  3.2km/h 5.0mph /  8km/h 33% 0.00in /  0mm 1148.0 W/m2
14:04 83.1 °F /  28.4 °C 50.2 °F /  10.1 °C 29.75in /  1007.3hPa North 4.9mph /  7.9km/h 7.0mph /  11.3km/h 32% 0.00in /  0mm 137.0 W/m2
14:10 82.2 °F /  27.9 °C 50.2 °F /  10.1 °C 29.75in /  1007.3hPa ENE 4.0mph /  6.4km/h 7.0mph /  11.3km/h 33% 0.00in /  0mm 151.0 W/m2
14:16 81.9 °F /  27.7 °C 50.0 °F /  10 °C 29.75in /  1007.3hPa North 2.0mph /  3.2km/h 4.0mph /  6.4km/h 33% 0.00in /  0mm 169.0 W/m2
14:22 81.5 °F /  27.5 °C 48.7 °F /  9.3 °C 29.74in /  1007hPa ESE 0.9mph /  1.4km/h 3.0mph /  4.8km/h 32% 0.00in /  0mm 237.0 W/m2
14:28 81.7 °F /  27.6 °C 49.8 °F /  9.9 °C 29.74in /  1007hPa Calm   1.0mph /  1.6km/h 33% 0.00in /  0mm 230.0 W/m2
14:34 81.7 °F /  27.6 °C 49.8 °F /  9.9 °C 29.74in /  1007hPa ESE 4.0mph /  6.4km/h 8.0mph /  12.9km/h 33% 0.00in /  0mm 181.0 W/m2
14:40 81.7 °F /  27.6 °C 50.5 °F /  10.3 °C 29.73in /  1006.7hPa ENE 0.9mph /  1.4km/h 4.0mph /  6.4km/h 34% 0.00in /  0mm 171.0 W/m2
14:46 81.3 °F /  27.4 °C 49.5 °F /  9.7 °C 29.73in /  1006.7hPa ENE 2.0mph /  3.2km/h 4.0mph /  6.4km/h 33% 0.00in /  0mm 135.0 W/m2
14:52 81.1 °F /  27.3 °C 48.6 °F /  9.2 °C 29.73in /  1006.7hPa Calm   1.0mph /  1.6km/h 32% 0.00in /  0mm 148.0 W/m2
14:58 80.8 °F /  27.1 °C 48.9 °F /  9.4 °C 29.73in /  1006.7hPa Calm     33% 0.00in /  0mm 130.0 W/m2
15:04 80.8 °F /  27.1 °C 48.9 °F /  9.4 °C 29.72in /  1006.3hPa Calm   1.0mph /  1.6km/h 33% 0.00in /  0mm 127.0 W/m2
15:10 80.6 °F /  27 °C 49.6 °F /  9.8 °C 29.72in /  1006.3hPa Calm   1.0mph /  1.6km/h 34% 0.00in /  0mm 127.0 W/m2
15:16 80.6 °F /  27 °C 49.6 °F /  9.8 °C 29.72in /  1006.3hPa Calm   1.0mph /  1.6km/h 34% 0.00in /  0mm 125.0 W/m2
15:23 80.4 °F /  26.9 °C 50.2 °F /  10.1 °C 29.72in /  1006.3hPa Calm     35% 0.00in /  0mm 134.0 W/m2
15:29 80.2 °F /  26.8 °C 50.9 °F /  10.5 °C 29.71in /  1006hPa Calm     36% 0.00in /  0mm 135.0 W/m2
15:35 80.2 °F /  26.8 °C 50.9 °F /  10.5 °C 29.71in /  1006hPa Calm   3.0mph /  4.8km/h 36% 0.00in /  0mm 149.0 W/m2
15:41 80.1 °F /  26.7 °C 50.7 °F /  10.4 °C 29.71in /  1006hPa Calm   1.0mph /  1.6km/h 36% 0.00in /  0mm 146.0 W/m2
15:47 79.9 °F /  26.6 °C 48.9 °F /  9.4 °C 29.71in /  1006hPa Calm   1.0mph /  1.6km/h 34% 0.00in /  0mm 155.0 W/m2
15:58 79.9 °F /  26.6 °C 50.5 °F /  10.3 °C 29.70in /  1005.6hPa Calm   1.0mph /  1.6km/h 36% 0.00in /  0mm 107.0 W/m2
16:04 79.9 °F /  26.6 °C 51.3 °F /  10.7 °C 29.70in /  1005.6hPa Calm   4.0mph /  6.4km/h 37% 0.00in /  0mm 83.0 W/m2
16:09 79.5 °F /  26.4 °C 51.6 °F /  10.9 °C 29.70in /  1005.6hPa Calm   1.0mph /  1.6km/h 38% 0.00in /  0mm 81.0 W/m2
16:16 79.5 °F /  26.4 °C 50.9 °F /  10.5 °C 29.70in /  1005.6hPa Calm     37% 0.00in /  0mm 77.0 W/m2
16:22 79.3 °F /  26.3 °C 52.9 °F /  11.6 °C 29.70in /  1005.6hPa Calm     40% 0.00in /  0mm 77.0 W/m2
16:28 79.3 °F /  26.3 °C 53.6 °F /  12 °C 29.70in /  1005.6hPa Calm     41% 0.00in /  0mm 81.0 W/m2
16:34 79.3 °F /  26.3 °C 52.2 °F /  11.2 °C 29.69in /  1005.3hPa Calm     39% 0.00in /  0mm 547.0 W/m2
16:40 80.2 °F /  26.8 °C 49.3 °F /  9.6 °C 29.69in /  1005.3hPa SSE 0.9mph /  1.4km/h 1.0mph /  1.6km/h 34% 0.00in /  0mm 77.0 W/m2
16:46 80.8 °F /  27.1 °C 48.9 °F /  9.4 °C 29.70in /  1005.6hPa Calm     33% 0.00in /  0mm 381.0 W/m2
16:52 81.3 °F /  27.4 °C 47.8 °F /  8.8 °C 29.69in /  1005.3hPa Calm     31% 0.00in /  0mm 475.0 W/m2
16:58 82.2 °F /  27.9 °C 49.5 °F /  9.7 °C 29.69in /  1005.3hPa Calm     32% 0.00in /  0mm 446.0 W/m2
17:04 83.5 °F /  28.6 °C 48.7 °F /  9.3 °C 29.69in /  1005.3hPa NW 2.0mph /  3.2km/h 2.0mph /  3.2km/h 30% 0.00in /  0mm 427.0 W/m2
17:10 84.0 °F /  28.9 °C 49.3 °F /  9.6 °C 29.69in /  1005.3hPa WSW 0.9mph /  1.4km/h 1.0mph /  1.6km/h 30% 0.00in /  0mm 401.0 W/m2
17:17 84.7 °F /  29.3 °C 48.9 °F /  9.4 °C 29.69in /  1005.3hPa Calm     29% 0.00in /  0mm 378.0 W/m2
17:23 85.5 °F /  29.7 °C 47.7 °F /  8.7 °C 29.69in /  1005.3hPa Calm   3.0mph /  4.8km/h 27% 0.00in /  0mm 352.0 W/m2
17:29 86.0 °F /  30 °C 48.2 °F /  9 °C 29.69in /  1005.3hPa NW 0.9mph /  1.4km/h 1.0mph /  1.6km/h 27% 0.00in /  0mm 332.0 W/m2
17:35 86.5 °F /  30.3 °C 48.6 °F /  9.2 °C 29.69in /  1005.3hPa NNW 0.9mph /  1.4km/h 2.0mph /  3.2km/h 27% 0.00in /  0mm 311.0 W/m2
17:41 86.7 °F /  30.4 °C 49.6 °F /  9.8 °C 29.69in /  1005.3hPa NNE 2.9mph /  4.7km/h 3.0mph /  4.8km/h 28% 0.00in /  0mm 283.0 W/m2
17:47 86.7 °F /  30.4 °C 48.7 °F /  9.3 °C 29.69in /  1005.3hPa Calm   3.0mph /  4.8km/h 27% 0.00in /  0mm 269.0 W/m2
17:54 86.7 °F /  30.4 °C 48.7 °F /  9.3 °C 29.69in /  1005.3hPa Calm   1.0mph /  1.6km/h 27% 0.00in /  0mm 244.0 W/m2
18:00 86.2 °F /  30.1 °C 49.3 °F /  9.6 °C 29.69in /  1005.3hPa Calm   1.0mph /  1.6km/h 28% 0.00in /  0mm 216.0 W/m2
18:06 85.5 °F /  29.7 °C 50.5 °F /  10.3 °C 29.69in /  1005.3hPa SW 2.9mph /  4.7km/h 8.0mph /  12.9km/h 30% 0.00in /  0mm 192.0 W/m2
18:12 84.2 °F /  29 °C 50.4 °F /  10.2 °C 29.69in /  1005.3hPa SSE 0.9mph /  1.4km/h 4.0mph /  6.4km/h 31% 0.00in /  0mm 86.0 W/m2
18:18 83.7 °F /  28.7 °C 50.7 °F /  10.4 °C 29.69in /  1005.3hPa SE 0.9mph /  1.4km/h 6.0mph /  9.7km/h 32% 0.00in /  0mm 62.0 W/m2
18:24 83.1 °F /  28.4 °C 51.8 °F /  11 °C 29.69in /  1005.3hPa SSW 0.9mph /  1.4km/h 3.0mph /  4.8km/h 34% 0.00in /  0mm 69.0 W/m2
18:30 82.6 °F /  28.1 °C 50.5 °F /  10.3 °C 29.69in /  1005.3hPa Calm   1.0mph /  1.6km/h 33% 0.00in /  0mm 77.0 W/m2
18:36 82.2 °F /  27.9 °C 51.8 °F /  11 °C 29.69in /  1005.3hPa Calm     35% 0.00in /  0mm 56.0 W/m2
18:42 82.0 °F /  27.8 °C 50.2 °F /  10.1 °C 29.69in /  1005.3hPa Calm     33% 0.00in /  0mm 49.0 W/m2
18:48 81.7 °F /  27.6 °C 49.8 °F /  9.9 °C 29.70in /  1005.6hPa Calm   2.0mph /  3.2km/h 33% 0.00in /  0mm 37.0 W/m2
18:54 81.1 °F /  27.3 °C 50.9 °F /  10.5 °C 29.70in /  1005.6hPa SE 0.9mph /  1.4km/h 2.0mph /  3.2km/h 35% 0.00in /  0mm 21.0 W/m2
19:00 80.4 °F /  26.9 °C 51.1 °F /  10.6 °C 29.70in /  1005.6hPa South 2.0mph /  3.2km/h 4.0mph /  6.4km/h 36% 0.00in /  0mm 7.0 W/m2
19:06 79.7 °F /  26.5 °C 51.1 °F /  10.6 °C 29.70in /  1005.6hPa SE 2.0mph /  3.2km/h 5.0mph /  8km/h 37% 0.00in /  0mm 0.0 W/m2
19:12 79.2 °F /  26.2 °C 51.4 °F /  10.8 °C 29.71in /  1006hPa Calm   3.0mph /  4.8km/h 38% 0.00in /  0mm 0.0 W/m2
19:18 78.4 °F /  25.8 °C 51.4 °F /  10.8 °C 29.71in /  1006hPa ESE 0.9mph /  1.4km/h 2.0mph /  3.2km/h 39% 0.00in /  0mm 0.0 W/m2
19:25 77.9 °F /  25.5 °C 50.9 °F /  10.5 °C 29.71in /  1006hPa SE 0.9mph /  1.4km/h 4.0mph /  6.4km/h 39% 0.00in /  0mm 0.0 W/m2
19:31 77.4 °F /  25.2 °C 51.1 °F /  10.6 °C 29.72in /  1006.3hPa SE 2.9mph /  4.7km/h 3.0mph /  4.8km/h 40% 0.00in /  0mm 0.0 W/m2
19:37 76.8 °F /  24.9 °C 50.7 °F /  10.4 °C 29.72in /  1006.3hPa SE 2.9mph /  4.7km/h 3.0mph /  4.8km/h 40% 0.00in /  0mm 0.0 W/m2
19:43 76.5 °F /  24.7 °C 51.1 °F /  10.6 °C 29.72in /  1006.3hPa SE 4.9mph /  7.9km/h 5.0mph /  8km/h 41% 0.00in /  0mm 0.0 W/m2
19:49 76.3 °F /  24.6 °C 50.9 °F /  10.5 °C 29.72in /  1006.3hPa SE 2.9mph /  4.7km/h 4.0mph /  6.4km/h 41% 0.00in /  0mm 0.0 W/m2
19:55 75.9 °F /  24.4 °C 50.5 °F /  10.3 °C 29.72in /  1006.3hPa Calm   3.0mph /  4.8km/h 41% 0.00in /  0mm 0.0 W/m2
20:01 75.6 °F /  24.2 °C 50.9 °F /  10.5 °C 29.73in /  1006.7hPa Calm   3.0mph /  4.8km/h 42% 0.00in /  0mm 0.0 W/m2
20:07 75.4 °F /  24.1 °C 52.0 °F /  11.1 °C 29.73in /  1006.7hPa Calm   1.0mph /  1.6km/h 44% 0.00in /  0mm 0.0 W/m2
20:14 75.0 °F /  23.9 °C 52.2 °F /  11.2 °C 29.73in /  1006.7hPa Calm   1.0mph /  1.6km/h 45% 0.00in /  0mm 0.0 W/m2
20:20 74.7 °F /  23.7 °C 52.5 °F /  11.4 °C 29.73in /  1006.7hPa Calm   1.0mph /  1.6km/h 46% 0.00in /  0mm 0.0 W/m2
20:26 74.1 °F /  23.4 °C 52.5 °F /  11.4 °C 29.74in /  1007hPa NNE 4.9mph /  7.9km/h 5.0mph /  8km/h 47% 0.00in /  0mm 0.0 W/m2
20:32 73.6 °F /  23.1 °C 52.2 °F /  11.2 °C 29.74in /  1007hPa NE 0.9mph /  1.4km/h 6.0mph /  9.7km/h 47% 0.00in /  0mm 0.0 W/m2
20:36 73.4 °F /  23 °C 52.0 °F /  11.1 °C 29.74in /  1007hPa North 0.9mph /  1.4km/h 4.0mph /  6.4km/h 47% 0.00in /  0mm 0.0 W/m2
20:42 73.2 °F /  22.9 °C 52.3 °F /  11.3 °C 29.75in /  1007.3hPa NNE 2.0mph /  3.2km/h 4.0mph /  6.4km/h 48% 0.00in /  0mm 0.0 W/m2
20:51 73.2 °F /  22.9 °C 52.9 °F /  11.6 °C 29.75in /  1007.3hPa Calm   4.0mph /  6.4km/h 49% 0.00in /  0mm 0.0 W/m2
20:56 73.0 °F /  22.8 °C 53.2 °F /  11.8 °C 29.75in /  1007.3hPa Calm   2.0mph /  3.2km/h 50% 0.00in /  0mm 0.0 W/m2
21:03 72.9 °F /  22.7 °C 53.6 °F /  12 °C 29.76in /  1007.7hPa ENE 0.9mph /  1.4km/h 2.0mph /  3.2km/h 51% 0.00in /  0mm 0.0 W/m2
21:09 72.7 °F /  22.6 °C 54.5 °F /  12.5 °C 29.76in /  1007.7hPa North 0.9mph /  1.4km/h 2.0mph /  3.2km/h 53% 0.00in /  0mm 0.0 W/m2
21:15 72.3 °F /  22.4 °C 54.7 °F /  12.6 °C 29.76in /  1007.7hPa East 0.9mph /  1.4km/h 3.0mph /  4.8km/h 54% 0.00in /  0mm 0.0 W/m2
21:21 72.0 °F /  22.2 °C 55.4 °F /  13 °C 29.77in /  1008hPa NE 0.9mph /  1.4km/h 4.0mph /  6.4km/h 56% 0.00in /  0mm 0.0 W/m2
21:27 71.4 °F /  21.9 °C 55.4 °F /  13 °C 29.77in /  1008hPa Calm   6.0mph /  9.7km/h 57% 0.00in /  0mm 0.0 W/m2
21:33 71.1 °F /  21.7 °C 55.6 °F /  13.1 °C 29.77in /  1008hPa Calm   3.0mph /  4.8km/h 58% 0.00in /  0mm 0.0 W/m2
21:39 70.7 °F /  21.5 °C 55.6 °F /  13.1 °C 29.77in /  1008hPa Calm   5.0mph /  8km/h 59% 0.00in /  0mm 0.0 W/m2
21:45 70.5 °F /  21.4 °C 55.9 °F /  13.3 °C 29.77in /  1008hPa ESE 0.9mph /  1.4km/h 6.0mph /  9.7km/h 60% 0.00in /  0mm 0.0 W/m2
21:52 70.2 °F /  21.2 °C 55.6 °F /  13.1 °C 29.77in /  1008hPa Calm   3.0mph /  4.8km/h 60% 0.00in /  0mm 0.0 W/m2
21:58 70.0 °F /  21.1 °C 55.9 °F /  13.3 °C 29.77in /  1008hPa Calm     61% 0.00in /  0mm 0.0 W/m2
22:04 69.8 °F /  21 °C 56.1 °F /  13.4 °C 29.78in /  1008.4hPa NE 2.0mph /  3.2km/h 3.0mph /  4.8km/h 62% 0.00in /  0mm 0.0 W/m2
22:10 69.6 °F /  20.9 °C 55.9 °F /  13.3 °C 29.78in /  1008.4hPa Calm     62% 0.00in /  0mm 0.0 W/m2
22:16 69.4 °F /  20.8 °C 56.3 °F /  13.5 °C 29.78in /  1008.4hPa Calm     63% 0.00in /  0mm 0.0 W/m2
22:22 69.3 °F /  20.7 °C 56.1 °F /  13.4 °C 29.78in /  1008.4hPa NE 2.0mph /  3.2km/h 4.0mph /  6.4km/h 63% 0.00in /  0mm 0.0 W/m2
22:28 69.3 °F /  20.7 °C 56.1 °F /  13.4 °C 29.79in /  1008.7hPa Calm   2.0mph /  3.2km/h 63% 0.00in /  0mm 0.0 W/m2
22:35 69.3 °F /  20.7 °C 56.1 °F /  13.4 °C 29.79in /  1008.7hPa Calm   3.0mph /  4.8km/h 63% 0.00in /  0mm 0.0 W/m2
22:41 69.3 °F /  20.7 °C 56.5 °F /  13.6 °C 29.78in /  1008.4hPa Calm   2.0mph /  3.2km/h 64% 0.00in /  0mm 0.0 W/m2
22:47 69.3 °F /  20.7 °C 56.5 °F /  13.6 °C 29.79in /  1008.7hPa Calm   1.0mph /  1.6km/h 64% 0.00in /  0mm 0.0 W/m2
22:53 69.1 °F /  20.6 °C 56.8 °F /  13.8 °C 29.79in /  1008.7hPa Calm   2.0mph /  3.2km/h 65% 0.00in /  0mm 0.0 W/m2
22:59 68.7 °F /  20.4 °C 56.8 °F /  13.8 °C 29.79in /  1008.7hPa Calm   1.0mph /  1.6km/h 66% 0.00in /  0mm 0.0 W/m2
23:05 68.5 °F /  20.3 °C 56.7 °F /  13.7 °C 29.79in /  1008.7hPa NNE 0.9mph /  1.4km/h 1.0mph /  1.6km/h 66% 0.00in /  0mm 0.0 W/m2
23:11 68.4 °F /  20.2 °C 56.1 °F /  13.4 °C 29.79in /  1008.7hPa Calm   1.0mph /  1.6km/h 65% 0.00in /  0mm 0.0 W/m2
23:17 68.2 °F /  20.1 °C 55.9 °F /  13.3 °C 29.79in /  1008.7hPa NNW 0.9mph /  1.4km/h 2.0mph /  3.2km/h 65% 0.00in /  0mm 0.0 W/m2
23:23 68.2 °F /  20.1 °C 55.9 °F /  13.3 °C 29.79in /  1008.7hPa Calm   1.0mph /  1.6km/h 65% 0.00in /  0mm 0.0 W/m2
23:29 68.2 °F /  20.1 °C 55.9 °F /  13.3 °C 29.79in /  1008.7hPa Calm   1.0mph /  1.6km/h 65% 0.00in /  0mm 0.0 W/m2
23:36 68.2 °F /  20.1 °C 56.3 °F /  13.5 °C 29.79in /  1008.7hPa WNW 2.0mph /  3.2km/h 3.0mph /  4.8km/h 66% 0.00in /  0mm 0.0 W/m2
23:42 68.2 °F /  20.1 °C 56.3 °F /  13.5 °C 29.79in /  1008.7hPa NNE 4.0mph /  6.4km/h 5.0mph /  8km/h 66% 0.00in /  0mm 0.0 W/m2
23:48 68.2 °F /  20.1 °C 56.3 °F /  13.5 °C 29.79in /  1008.7hPa Calm   1.0mph /  1.6km/h 66% 0.00in /  0mm 0.0 W/m2
23:54 67.8 °F /  19.9 °C 56.5 °F /  13.6 °C 29.79in /  1008.7hPa NNE 2.0mph /  3.2km/h 4.0mph /  6.4km/h 67% 0.00in /  0mm 0.0 W/m2
Olympia, Windhoek, Namibia
Compliments of Weather Underground - 3 mb